Misión y Visión

La misión es proporcionar información fiable a la navegación aérea, contribuyendo a la seguridad, regularidad y eficiencia de la Navegación Aérea Internacional

La visión es contribuir sustancialmente al desarrollo de conocimientos y a la utilización de la meteorología aeronáutica a nivel nacional e internacional, mediante la innovación y la coparticipación con sectores sociales y productivos de la sociedad.

 
  Inicio
  Metar
  Taf
  Wintemp
  SIGMET
  Avisos
  Pronósticos
  Carpeta Meteorologica
  Imágenes Satelitales
  Climatología Aeronáutica
   
  ¿Quienes Somos?
  Contacto
  Eventos
Taf

 

IMÁGENES DEL AEROPUERTO
(EN CONSTRUCCION)

 

PRONOSTICO DE AERÓDROMO
TAF / PROYECCION CLIMATICA
MES DE JULIO

 

AEROPUERTO ENRIQUE MALEK:

TAF MPSM 232300Z 2400/2506 33005KT 9999 SCT020 TEMPO 2404/2408 00000KT TEMPO 2417/2421 16008KT=


TAF:

TAF MPDA 232300Z 2400/2412 00000KT 9999 FEW018 TEMPO 2400/2404 19005KT=

 

AEROPUERTO PANAMA PACIFICO:

hola



TAF:



AEROPUERTO MARCOS A. GELABERT:

TAF MPMG 232300Z 2400/2412 33005KT 9999 SCT018 TEMPO 2404/2408 00000KT=



TAF:



AEROPUERTO INTL. DE TOCUMEN:

TAF MPPA 232300Z 2400/2506 34005KT 9999 SCT018 TEMPO 2404/2408 00000KT PROB30 TEMPO 2417/2421 18004KT 7000 SHRA SCT016CB SCT090=



TAF:

TAF MPTO 232300Z 2400/2506 30005KT 9999 SCT018 TEMPO 2400/2404 07004KT TEMPO 2404/2408 00000KT PROB30 TEMPO 2417/2421 07008KT 7000 SHRA SCT016CB SCT090=